sensor_id;sensor_type;location;lat;lon;timestamp;pressure;altitude;pressure_sealevel;temperature;humidity
35577;BME280;21680;52.400;16.920;2023-05-10T00:00:21;100900.31;;;9.55;43.32
35577;BME280;21680;52.400;16.920;2023-05-10T00:02:47;100895.23;;;9.52;43.46
35577;BME280;21680;52.400;16.920;2023-05-10T00:05:13;100895.84;;;9.50;43.47
35577;BME280;21680;52.400;16.920;2023-05-10T00:07:38;100886.01;;;9.46;43.59
35577;BME280;21680;52.400;16.920;2023-05-10T00:10:04;100887.33;;;9.43;43.64
35577;BME280;21680;52.400;16.920;2023-05-10T00:12:30;100884.60;;;9.40;43.71
35577;BME280;21680;52.400;16.920;2023-05-10T00:14:55;100883.83;;;9.37;43.81
35577;BME280;21680;52.400;16.920;2023-05-10T00:17:20;100879.80;;;9.34;43.86
35577;BME280;21680;52.400;16.920;2023-05-10T00:19:45;100878.30;;;9.31;43.89
35577;BME280;21680;52.400;16.920;2023-05-10T00:22:10;100873.39;;;9.29;44.09
35577;BME280;21680;52.400;16.920;2023-05-10T00:24:36;100874.72;;;9.27;44.09
35577;BME280;21680;52.400;16.920;2023-05-10T00:27:01;100868.41;;;9.24;44.25
35577;BME280;21680;52.400;16.920;2023-05-10T00:29:29;100866.00;;;9.21;44.27
35577;BME280;21680;52.400;16.920;2023-05-10T00:31:54;100864.66;;;9.19;44.22
35577;BME280;21680;52.400;16.920;2023-05-10T00:34:19;100861.02;;;9.16;44.33
35577;BME280;21680;52.400;16.920;2023-05-10T00:36:45;100858.46;;;9.12;44.46
35577;BME280;21680;52.400;16.920;2023-05-10T00:39:10;100857.33;;;9.08;44.39
35577;BME280;21680;52.400;16.920;2023-05-10T00:41:35;100855.81;;;9.06;44.61
35577;BME280;21680;52.400;16.920;2023-05-10T00:44:01;100854.13;;;9.03;44.63
35577;BME280;21680;52.400;16.920;2023-05-10T00:46:27;100852.44;;;9.01;44.67
35577;BME280;21680;52.400;16.920;2023-05-10T00:48:53;100854.67;;;8.98;44.73
35577;BME280;21680;52.400;16.920;2023-05-10T00:51:18;100854.09;;;8.94;44.84
35577;BME280;21680;52.400;16.920;2023-05-10T00:53:45;100850.83;;;8.90;44.97
35577;BME280;21680;52.400;16.920;2023-05-10T00:56:10;100849.14;;;8.87;44.94
35577;BME280;21680;52.400;16.920;2023-05-10T00:58:41;100845.70;;;8.84;45.13
35577;BME280;21680;52.400;16.920;2023-05-10T01:01:08;100849.37;;;8.80;45.22
35577;BME280;21680;52.400;16.920;2023-05-10T01:03:34;100845.54;;;8.77;45.17
35577;BME280;21680;52.400;16.920;2023-05-10T01:06:01;100843.71;;;8.73;45.31
35577;BME280;21680;52.400;16.920;2023-05-10T01:08:26;100846.11;;;8.71;45.36
35577;BME280;21680;52.400;16.920;2023-05-10T01:10:53;100846.04;;;8.68;45.59
35577;BME280;21680;52.400;16.920;2023-05-10T01:13:31;100843.27;;;8.65;45.65
35577;BME280;21680;52.400;16.920;2023-05-10T01:15:59;100840.52;;;8.62;45.65
35577;BME280;21680;52.400;16.920;2023-05-10T01:18:29;100839.04;;;8.58;45.76
35577;BME280;21680;52.400;16.920;2023-05-10T01:23:57;100839.15;;;8.55;45.90
35577;BME280;21680;52.400;16.920;2023-05-10T01:32:00;100835.05;;;8.44;46.09
35577;BME280;21680;52.400;16.920;2023-05-10T01:34:34;100834.12;;;8.39;46.36
35577;BME280;21680;52.400;16.920;2023-05-10T01:37:21;100833.84;;;8.37;46.30
35577;BME280;21680;52.400;16.920;2023-05-10T01:40:03;100833.77;;;8.33;46.43
35577;BME280;21680;52.400;16.920;2023-05-10T01:42:40;100832.04;;;8.31;46.49
35577;BME280;21680;52.400;16.920;2023-05-10T01:45:16;100832.69;;;8.27;46.54
35577;BME280;21680;52.400;16.920;2023-05-10T01:47:46;100829.39;;;8.24;46.45
35577;BME280;21680;52.400;16.920;2023-05-10T01:50:17;100829.31;;;8.21;46.62
35577;BME280;21680;52.400;16.920;2023-05-10T01:52:50;100827.45;;;8.18;46.72
35577;BME280;21680;52.400;16.920;2023-05-10T01:55:35;100830.90;;;8.16;46.77
35577;BME280;21680;52.400;16.920;2023-05-10T01:58:13;100825.66;;;8.12;46.76
35577;BME280;21680;52.400;16.920;2023-05-10T02:00:42;100825.92;;;8.10;46.92
35577;BME280;21680;52.400;16.920;2023-05-10T02:03:10;100826.17;;;8.07;46.80
35577;BME280;21680;52.400;16.920;2023-05-10T02:05:37;100822.16;;;8.04;47.03
35577;BME280;21680;52.400;16.920;2023-05-10T02:08:06;100820.83;;;8.02;47.13
35577;BME280;21680;52.400;16.920;2023-05-10T02:10:32;100821.44;;;7.99;47.18
35577;BME280;21680;52.400;16.920;2023-05-10T02:12:59;100819.58;;;7.96;47.13
35577;BME280;21680;52.400;16.920;2023-05-10T02:15:26;100819.33;;;7.92;47.35
35577;BME280;21680;52.400;16.920;2023-05-10T02:17:54;100813.57;;;7.89;47.33
35577;BME280;21680;52.400;16.920;2023-05-10T02:20:20;100816.13;;;7.86;47.45
35577;BME280;21680;52.400;16.920;2023-05-10T02:22:49;100812.50;;;7.82;47.56
35577;BME280;21680;52.400;16.920;2023-05-10T02:25:15;100812.27;;;7.79;47.62
35577;BME280;21680;52.400;16.920;2023-05-10T02:27:41;100810.39;;;7.77;47.64
35577;BME280;21680;52.400;16.920;2023-05-10T02:30:08;100809.58;;;7.74;47.68
35577;BME280;21680;52.400;16.920;2023-05-10T02:32:35;100810.37;;;7.72;47.86
35577;BME280;21680;52.400;16.920;2023-05-10T02:35:02;100814.34;;;7.70;47.87
35577;BME280;21680;52.400;16.920;2023-05-10T02:37:29;100811.71;;;7.68;47.99
35577;BME280;21680;52.400;16.920;2023-05-10T02:39:56;100813.02;;;7.66;48.07
35577;BME280;21680;52.400;16.920;2023-05-10T02:42:26;100814.88;;;7.63;48.15
35577;BME280;21680;52.400;16.920;2023-05-10T02:44:54;100813.01;;;7.61;48.11
35577;BME280;21680;52.400;16.920;2023-05-10T02:47:21;100811.16;;;7.57;48.25
35577;BME280;21680;52.400;16.920;2023-05-10T02:49:47;100812.67;;;7.53;48.37
35577;BME280;21680;52.400;16.920;2023-05-10T02:52:16;100811.86;;;7.51;48.34
35577;BME280;21680;52.400;16.920;2023-05-10T02:54:50;100813.72;;;7.48;48.40
35577;BME280;21680;52.400;16.920;2023-05-10T02:57:23;100811.61;;;7.47;48.48
35577;BME280;21680;52.400;16.920;2023-05-10T02:59:49;100813.63;;;7.45;48.54
35577;BME280;21680;52.400;16.920;2023-05-10T03:02:15;100807.29;;;7.42;48.63
35577;BME280;21680;52.400;16.920;2023-05-10T03:04:41;100806.80;;;7.41;48.70
35577;BME280;21680;52.400;16.920;2023-05-10T03:07:07;100807.55;;;7.39;48.72
35577;BME280;21680;52.400;16.920;2023-05-10T03:09:33;100800.52;;;7.37;48.78
35577;BME280;21680;52.400;16.920;2023-05-10T03:12:11;100796.48;;;7.35;48.93
35577;BME280;21680;52.400;16.920;2023-05-10T03:14:49;100800.42;;;7.33;49.02
35577;BME280;21680;52.400;16.920;2023-05-10T03:17:25;100800.83;;;7.32;48.93
35577;BME280;21680;52.400;16.920;2023-05-10T03:19:56;100801.55;;;7.32;49.13
35577;BME280;21680;52.400;16.920;2023-05-10T03:22:41;100799.96;;;7.31;49.05
35577;BME280;21680;52.400;16.920;2023-05-10T03:25:11;100795.95;;;7.28;49.29
35577;BME280;21680;52.400;16.920;2023-05-10T03:27:40;100793.49;;;7.27;49.24
35577;BME280;21680;52.400;16.920;2023-05-10T03:30:09;100794.20;;;7.27;49.36
35577;BME280;21680;52.400;16.920;2023-05-10T03:32:35;100793.67;;;7.27;49.45
35577;BME280;21680;52.400;16.920;2023-05-10T03:35:06;100794.00;;;7.28;49.63
35577;BME280;21680;52.400;16.920;2023-05-10T03:37:32;100791.43;;;7.31;49.65
35577;BME280;21680;52.400;16.920;2023-05-10T03:39:58;100790.33;;;7.32;49.69
35577;BME280;21680;52.400;16.920;2023-05-10T03:42:23;100792.82;;;7.32;49.62
35577;BME280;21680;52.400;16.920;2023-05-10T03:44:48;100795.10;;;7.33;49.73
35577;BME280;21680;52.400;16.920;2023-05-10T03:47:14;100795.98;;;7.33;49.81
35577;BME280;21680;52.400;16.920;2023-05-10T03:49:40;100797.77;;;7.33;49.89
35577;BME280;21680;52.400;16.920;2023-05-10T03:52:05;100796.71;;;7.33;49.96
35577;BME280;21680;52.400;16.920;2023-05-10T03:54:31;100800.81;;;7.33;50.09
35577;BME280;21680;52.400;16.920;2023-05-10T03:56:57;100799.75;;;7.32;50.08
35577;BME280;21680;52.400;16.920;2023-05-10T03:59:22;100800.48;;;7.32;50.11
35577;BME280;21680;52.400;16.920;2023-05-10T04:01:47;100798.69;;;7.32;50.26
35577;BME280;21680;52.400;16.920;2023-05-10T04:04:13;100796.38;;;7.32;50.22
35577;BME280;21680;52.400;16.920;2023-05-10T04:06:38;100800.09;;;7.33;50.32
35577;BME280;21680;52.400;16.920;2023-05-10T04:09:03;100795.45;;;7.34;50.39
35577;BME280;21680;52.400;16.920;2023-05-10T04:11:29;100796.63;;;7.36;50.53
35577;BME280;21680;52.400;16.920;2023-05-10T04:13:54;100796.23;;;7.37;50.51
35577;BME280;21680;52.400;16.920;2023-05-10T04:16:20;100796.39;;;7.38;50.50
35577;BME280;21680;52.400;16.920;2023-05-10T04:18:45;100801.88;;;7.39;50.55
35577;BME280;21680;52.400;16.920;2023-05-10T04:21:11;100800.05;;;7.41;50.70
35577;BME280;21680;52.400;16.920;2023-05-10T04:23:38;100796.44;;;7.43;50.78
35577;BME280;21680;52.400;16.920;2023-05-10T04:26:03;100795.64;;;7.46;50.80
35577;BME280;21680;52.400;16.920;2023-05-10T04:28:28;100797.52;;;7.48;50.91
35577;BME280;21680;52.400;16.920;2023-05-10T04:31:09;100801.36;;;7.51;51.00
35577;BME280;21680;52.400;16.920;2023-05-10T04:33:35;100800.92;;;7.54;51.06
35577;BME280;21680;52.400;16.920;2023-05-10T04:36:01;100803.30;;;7.58;51.07
35577;BME280;21680;52.400;16.920;2023-05-10T04:38:28;100804.27;;;7.61;51.05
35577;BME280;21680;52.400;16.920;2023-05-10T04:40:53;100804.33;;;7.65;51.12
35577;BME280;21680;52.400;16.920;2023-05-10T04:43:19;100803.52;;;7.69;51.21
35577;BME280;21680;52.400;16.920;2023-05-10T04:45:45;100799.48;;;7.73;51.28
35577;BME280;21680;52.400;16.920;2023-05-10T04:48:10;100801.31;;;7.77;51.35
35577;BME280;21680;52.400;16.920;2023-05-10T04:50:36;100801.34;;;7.81;51.28
35577;BME280;21680;52.400;16.920;2023-05-10T04:53:01;100803.66;;;7.87;51.24
35577;BME280;21680;52.400;16.920;2023-05-10T04:55:26;100806.17;;;7.92;51.30
35577;BME280;21680;52.400;16.920;2023-05-10T04:57:52;100806.58;;;7.96;51.43
35577;BME280;21680;52.400;16.920;2023-05-10T05:00:20;100805.54;;;8.01;51.48
35577;BME280;21680;52.400;16.920;2023-05-10T05:02:45;100804.02;;;8.04;51.47
35577;BME280;21680;52.400;16.920;2023-05-10T05:05:11;100806.02;;;8.09;51.43
35577;BME280;21680;52.400;16.920;2023-05-10T05:07:37;100808.84;;;8.15;51.55
35577;BME280;21680;52.400;16.920;2023-05-10T05:10:05;100811.15;;;8.22;51.55
35577;BME280;21680;52.400;16.920;2023-05-10T05:12:32;100809.73;;;8.27;51.59
35577;BME280;21680;52.400;16.920;2023-05-10T05:14:58;100813.70;;;8.31;51.60
35577;BME280;21680;52.400;16.920;2023-05-10T05:17:23;100813.05;;;8.36;51.62
35577;BME280;21680;52.400;16.920;2023-05-10T05:19:48;100813.38;;;8.42;51.76
35577;BME280;21680;52.400;16.920;2023-05-10T05:22:13;100814.08;;;8.48;51.73
35577;BME280;21680;52.400;16.920;2023-05-10T05:24:39;100813.49;;;8.55;51.79
35577;BME280;21680;52.400;16.920;2023-05-10T05:27:04;100816.13;;;8.61;51.83
35577;BME280;21680;52.400;16.920;2023-05-10T05:29:29;100810.63;;;8.66;51.76
35577;BME280;21680;52.400;16.920;2023-05-10T05:31:55;100814.13;;;8.73;51.81
35577;BME280;21680;52.400;16.920;2023-05-10T05:34:20;100812.83;;;8.81;51.86
35577;BME280;21680;52.400;16.920;2023-05-10T05:36:46;100814.56;;;8.88;51.95
35577;BME280;21680;52.400;16.920;2023-05-10T05:39:12;100814.31;;;8.95;51.91
35577;BME280;21680;52.400;16.920;2023-05-10T05:41:37;100813.52;;;9.03;51.87
35577;BME280;21680;52.400;16.920;2023-05-10T05:44:02;100811.23;;;9.12;51.88
35577;BME280;21680;52.400;16.920;2023-05-10T05:46:28;100809.30;;;9.21;51.95
35577;BME280;21680;52.400;16.920;2023-05-10T05:48:53;100809.11;;;9.27;51.92
35577;BME280;21680;52.400;16.920;2023-05-10T05:51:19;100809.50;;;9.35;51.93
35577;BME280;21680;52.400;16.920;2023-05-10T05:53:44;100806.25;;;9.47;51.98
35577;BME280;21680;52.400;16.920;2023-05-10T05:56:10;100807.73;;;9.55;51.85
35577;BME280;21680;52.400;16.920;2023-05-10T05:58:35;100804.27;;;9.62;51.90
35577;BME280;21680;52.400;16.920;2023-05-10T06:01:00;100805.09;;;9.68;51.99
35577;BME280;21680;52.400;16.920;2023-05-10T06:03:26;100802.29;;;9.76;51.93
35577;BME280;21680;52.400;16.920;2023-05-10T06:05:51;100804.51;;;9.84;51.92
35577;BME280;21680;52.400;16.920;2023-05-10T06:08:16;100805.83;;;9.91;51.91
35577;BME280;21680;52.400;16.920;2023-05-10T06:10:42;100805.20;;;9.98;51.83
35577;BME280;21680;52.400;16.920;2023-05-10T06:13:07;100806.36;;;10.05;51.79
35577;BME280;21680;52.400;16.920;2023-05-10T06:15:32;100804.03;;;10.15;51.74
35577;BME280;21680;52.400;16.920;2023-05-10T06:17:58;100805.89;;;10.23;51.70
35577;BME280;21680;52.400;16.920;2023-05-10T06:20:23;100803.21;;;10.32;51.75
35577;BME280;21680;52.400;16.920;2023-05-10T06:22:49;100800.44;;;10.42;51.65
35577;BME280;21680;52.400;16.920;2023-05-10T06:25:14;100803.64;;;10.51;51.60
35577;BME280;21680;52.400;16.920;2023-05-10T06:27:43;100798.29;;;10.60;51.56
35577;BME280;21680;52.400;16.920;2023-05-10T06:30:09;100795.52;;;10.70;51.63
35577;BME280;21680;52.400;16.920;2023-05-10T06:32:35;100793.60;;;10.82;51.61
35577;BME280;21680;52.400;16.920;2023-05-10T06:35:00;100794.96;;;10.92;51.54
35577;BME280;21680;52.400;16.920;2023-05-10T06:37:25;100793.58;;;11.00;51.41
35577;BME280;21680;52.400;16.920;2023-05-10T06:39:51;100791.19;;;11.09;51.42
35577;BME280;21680;52.400;16.920;2023-05-10T06:42:16;100789.39;;;11.18;51.38
35577;BME280;21680;52.400;16.920;2023-05-10T06:44:41;100793.02;;;11.25;51.25
35577;BME280;21680;52.400;16.920;2023-05-10T06:47:06;100790.55;;;11.32;51.19
35577;BME280;21680;52.400;16.920;2023-05-10T06:49:32;100789.86;;;11.40;51.17
35577;BME280;21680;52.400;16.920;2023-05-10T06:51:57;100791.40;;;11.49;51.13
35577;BME280;21680;52.400;16.920;2023-05-10T06:54:22;100788.25;;;11.59;51.04
35577;BME280;21680;52.400;16.920;2023-05-10T06:56:48;100792.66;;;11.68;51.00
35577;BME280;21680;52.400;16.920;2023-05-10T06:59:13;100787.84;;;11.81;50.85
35577;BME280;21680;52.400;16.920;2023-05-10T07:01:39;100790.10;;;11.90;50.86
35577;BME280;21680;52.400;16.920;2023-05-10T07:04:04;100790.45;;;11.98;50.70
35577;BME280;21680;52.400;16.920;2023-05-10T07:06:30;100792.21;;;12.06;50.67
35577;BME280;21680;52.400;16.920;2023-05-10T07:08:55;100787.86;;;12.15;50.66
35577;BME280;21680;52.400;16.920;2023-05-10T07:11:20;100785.41;;;12.25;50.58
35577;BME280;21680;52.400;16.920;2023-05-10T07:13:46;100784.59;;;12.38;50.47
35577;BME280;21680;52.400;16.920;2023-05-10T07:16:11;100780.98;;;12.49;50.45
35577;BME280;21680;52.400;16.920;2023-05-10T07:18:37;100773.27;;;12.60;50.37
35577;BME280;21680;52.400;16.920;2023-05-10T07:21:02;100774.98;;;12.72;50.16
35577;BME280;21680;52.400;16.920;2023-05-10T07:23:28;100775.24;;;12.82;50.04
35577;BME280;21680;52.400;16.920;2023-05-10T07:25:53;100779.41;;;12.91;49.94
35577;BME280;21680;52.400;16.920;2023-05-10T07:28:19;100771.60;;;13.00;49.79
35577;BME280;21680;52.400;16.920;2023-05-10T07:30:45;100770.77;;;13.09;49.84
35577;BME280;21680;52.400;16.920;2023-05-10T07:33:12;100767.78;;;13.18;49.68
35577;BME280;21680;52.400;16.920;2023-05-10T07:35:38;100768.52;;;13.28;49.57
35577;BME280;21680;52.400;16.920;2023-05-10T07:38:04;100767.44;;;13.35;49.46
35577;BME280;21680;52.400;16.920;2023-05-10T07:40:30;100770.61;;;13.43;49.40
35577;BME280;21680;52.400;16.920;2023-05-10T07:42:56;100769.77;;;13.55;49.36
35577;BME280;21680;52.400;16.920;2023-05-10T07:45:22;100767.20;;;13.66;49.21
35577;BME280;21680;52.400;16.920;2023-05-10T07:47:47;100769.55;;;13.76;49.12
35577;BME280;21680;52.400;16.920;2023-05-10T07:50:12;100767.59;;;13.85;49.00
35577;BME280;21680;52.400;16.920;2023-05-10T07:52:38;100764.43;;;13.93;48.87
35577;BME280;21680;52.400;16.920;2023-05-10T07:55:03;100764.98;;;14.03;48.78
35577;BME280;21680;52.400;16.920;2023-05-10T07:57:33;100773.05;;;14.13;48.66
35577;BME280;21680;52.400;16.920;2023-05-10T07:59:58;100770.21;;;14.22;48.42
35577;BME280;21680;52.400;16.920;2023-05-10T08:02:24;100767.64;;;14.29;48.47
35577;BME280;21680;52.400;16.920;2023-05-10T08:04:49;100767.45;;;14.39;48.39
35577;BME280;21680;52.400;16.920;2023-05-10T08:07:14;100764.34;;;14.50;48.26
35577;BME280;21680;52.400;16.920;2023-05-10T08:09:40;100764.61;;;14.60;48.15
35577;BME280;21680;52.400;16.920;2023-05-10T08:12:05;100760.83;;;14.70;48.05
35577;BME280;21680;52.400;16.920;2023-05-10T08:14:31;100760.64;;;14.79;48.01
35577;BME280;21680;52.400;16.920;2023-05-10T08:16:57;100755.01;;;14.86;47.81
35577;BME280;21680;52.400;16.920;2023-05-10T08:19:22;100751.02;;;14.92;47.76
35577;BME280;21680;52.400;16.920;2023-05-10T08:21:48;100744.43;;;15.01;47.62
35577;BME280;21680;52.400;16.920;2023-05-10T08:24:14;100749.45;;;15.10;47.51
35577;BME280;21680;52.400;16.920;2023-05-10T08:26:40;100751.03;;;15.19;47.45
35577;BME280;21680;52.400;16.920;2023-05-10T08:29:05;100752.88;;;15.30;47.36
35577;BME280;21680;52.400;16.920;2023-05-10T08:31:30;100754.54;;;15.38;47.25
35577;BME280;21680;52.400;16.920;2023-05-10T08:33:56;100753.16;;;15.46;47.17
35577;BME280;21680;52.400;16.920;2023-05-10T08:36:21;100750.17;;;15.54;46.99
35577;BME280;21680;52.400;16.920;2023-05-10T08:38:53;100749.33;;;15.64;46.86
35577;BME280;21680;52.400;16.920;2023-05-10T08:41:22;100748.84;;;15.72;46.60
35577;BME280;21680;52.400;16.920;2023-05-10T08:43:50;100747.04;;;15.80;46.55
35577;BME280;21680;52.400;16.920;2023-05-10T08:46:18;100750.80;;;15.92;46.24
35577;BME280;21680;52.400;16.920;2023-05-10T08:48:47;100752.66;;;15.99;46.07
35577;BME280;21680;52.400;16.920;2023-05-10T08:51:15;100742.38;;;16.06;46.06
35577;BME280;21680;52.400;16.920;2023-05-10T08:53:43;100740.60;;;16.10;45.77
35577;BME280;21680;52.400;16.920;2023-05-10T08:56:09;100742.48;;;16.17;45.79
35577;BME280;21680;52.400;16.920;2023-05-10T08:58:34;100737.84;;;16.28;45.51
35577;BME280;21680;52.400;16.920;2023-05-10T09:01:00;100737.30;;;16.36;45.52
35577;BME280;21680;52.400;16.920;2023-05-10T09:03:27;100732.55;;;16.45;45.36
35577;BME280;21680;52.400;16.920;2023-05-10T09:05:53;100735.48;;;16.58;44.91
35577;BME280;21680;52.400;16.920;2023-05-10T09:08:19;100737.00;;;16.70;44.76
35577;BME280;21680;52.400;16.920;2023-05-10T09:10:45;100735.88;;;16.82;44.48
35577;BME280;21680;52.400;16.920;2023-05-10T09:13:14;100730.46;;;16.87;44.03
35577;BME280;21680;52.400;16.920;2023-05-10T09:15:40;100725.55;;;16.90;43.87
35577;BME280;21680;52.400;16.920;2023-05-10T09:18:05;100725.37;;;16.96;43.76
35577;BME280;21680;52.400;16.920;2023-05-10T09:20:31;100721.11;;;17.02;43.33
35577;BME280;21680;52.400;16.920;2023-05-10T09:22:56;100721.27;;;17.07;42.99
35577;BME280;21680;52.400;16.920;2023-05-10T09:25:22;100726.81;;;17.14;42.69
35577;BME280;21680;52.400;16.920;2023-05-10T09:27:47;100727.38;;;17.18;42.48
35577;BME280;21680;52.400;16.920;2023-05-10T09:30:28;100718.50;;;17.24;42.36
35577;BME280;21680;52.400;16.920;2023-05-10T09:32:54;100718.99;;;17.30;41.92
35577;BME280;21680;52.400;16.920;2023-05-10T09:35:23;100723.52;;;17.35;41.63
35577;BME280;21680;52.400;16.920;2023-05-10T09:37:51;100723.75;;;17.42;41.48
35577;BME280;21680;52.400;16.920;2023-05-10T09:40:19;100720.41;;;17.50;41.03
35577;BME280;21680;52.400;16.920;2023-05-10T09:43:01;100722.48;;;17.59;40.44
35577;BME280;21680;52.400;16.920;2023-05-10T09:45:29;100720.28;;;17.68;40.38
35577;BME280;21680;52.400;16.920;2023-05-10T09:47:56;100724.45;;;17.75;40.18
35577;BME280;21680;52.400;16.920;2023-05-10T09:50:22;100721.31;;;17.81;40.06
35577;BME280;21680;52.400;16.920;2023-05-10T09:55:38;100720.89;;;17.92;39.65
35577;BME280;21680;52.400;16.920;2023-05-10T09:58:04;100720.67;;;18.00;39.79
35577;BME280;21680;52.400;16.920;2023-05-10T10:00:36;100720.17;;;18.07;39.32
35577;BME280;21680;52.400;16.920;2023-05-10T10:03:02;100709.63;;;18.10;39.19
35577;BME280;21680;52.400;16.920;2023-05-10T10:05:29;100712.77;;;18.09;38.88
35577;BME280;21680;52.400;16.920;2023-05-10T10:07:56;100716.77;;;18.11;38.72
35577;BME280;21680;52.400;16.920;2023-05-10T10:10:23;100713.41;;;18.20;38.67
35577;BME280;21680;52.400;16.920;2023-05-10T10:12:48;100709.27;;;18.26;38.55
35577;BME280;21680;52.400;16.920;2023-05-10T10:15:13;100700.80;;;18.36;38.49
35577;BME280;21680;52.400;16.920;2023-05-10T10:17:40;100700.91;;;18.41;38.33
35577;BME280;21680;52.400;16.920;2023-05-10T10:20:07;100701.90;;;18.47;38.27
35577;BME280;21680;52.400;16.920;2023-05-10T10:22:33;100697.60;;;18.52;38.17
35577;BME280;21680;52.400;16.920;2023-05-10T10:24:59;100692.95;;;18.58;38.13
35577;BME280;21680;52.400;16.920;2023-05-10T10:27:36;100696.73;;;18.66;37.89
35577;BME280;21680;52.400;16.920;2023-05-10T10:30:19;100694.45;;;18.77;37.84
35577;BME280;21680;52.400;16.920;2023-05-10T10:36:00;100695.77;;;18.95;37.30
35577;BME280;21680;52.400;16.920;2023-05-10T10:38:57;100688.78;;;19.07;37.13
35577;BME280;21680;52.400;16.920;2023-05-10T10:41:35;100692.52;;;19.18;37.06
35577;BME280;21680;52.400;16.920;2023-05-10T10:50:06;100685.70;;;19.51;36.77
35577;BME280;21680;52.400;16.920;2023-05-10T10:52:34;100685.14;;;19.58;36.52
35577;BME280;21680;52.400;16.920;2023-05-10T11:03:08;100669.64;;;19.99;36.11
35577;BME280;21680;52.400;16.920;2023-05-10T11:08:28;100671.27;;;20.13;35.95
35577;BME280;21680;52.400;16.920;2023-05-10T11:11:03;100672.93;;;20.23;35.77
35577;BME280;21680;52.400;16.920;2023-05-10T11:13:31;100670.71;;;20.28;35.52
35577;BME280;21680;52.400;16.920;2023-05-10T11:15:57;100656.73;;;20.28;35.32
35577;BME280;21680;52.400;16.920;2023-05-10T11:18:25;100658.63;;;20.27;35.23
35577;BME280;21680;52.400;16.920;2023-05-10T11:21:01;100660.70;;;20.37;35.27
35577;BME280;21680;52.400;16.920;2023-05-10T11:26:09;100654.02;;;20.69;34.94
35577;BME280;21680;52.400;16.920;2023-05-10T11:28:44;100655.53;;;20.72;34.67
35577;BME280;21680;52.400;16.920;2023-05-10T11:31:10;100658.75;;;20.73;34.68
35577;BME280;21680;52.400;16.920;2023-05-10T11:33:50;100652.87;;;20.76;34.62
35577;BME280;21680;52.400;16.920;2023-05-10T11:36:18;100649.07;;;20.80;34.44
35577;BME280;21680;52.400;16.920;2023-05-10T11:38:45;100644.36;;;20.94;34.36
35577;BME280;21680;52.400;16.920;2023-05-10T11:41:11;100654.46;;;21.12;34.20
35577;BME280;21680;52.400;16.920;2023-05-10T11:43:39;100653.54;;;21.24;33.95
35577;BME280;21680;52.400;16.920;2023-05-10T11:46:06;100656.90;;;21.28;33.97
35577;BME280;21680;52.400;16.920;2023-05-10T11:48:32;100653.70;;;21.37;33.97
35577;BME280;21680;52.400;16.920;2023-05-10T11:50:58;100646.32;;;21.40;33.88
35577;BME280;21680;52.400;16.920;2023-05-10T11:53:26;100658.52;;;21.42;33.71
35577;BME280;21680;52.400;16.920;2023-05-10T11:55:52;100654.96;;;21.54;33.69
35577;BME280;21680;52.400;16.920;2023-05-10T11:58:18;100648.52;;;21.66;33.67
35577;BME280;21680;52.400;16.920;2023-05-10T12:00:44;100655.16;;;21.82;33.52
35577;BME280;21680;52.400;16.920;2023-05-10T12:03:10;100658.65;;;21.93;33.39
35577;BME280;21680;52.400;16.920;2023-05-10T12:05:37;100656.94;;;22.00;33.06
35577;BME280;21680;52.400;16.920;2023-05-10T12:08:13;100653.89;;;22.06;33.16
35577;BME280;21680;52.400;16.920;2023-05-10T12:10:39;100652.02;;;22.20;32.93
35577;BME280;21680;52.400;16.920;2023-05-10T12:13:04;100654.80;;;22.29;32.79
35577;BME280;21680;52.400;16.920;2023-05-10T12:15:29;100652.83;;;22.33;32.76
35577;BME280;21680;52.400;16.920;2023-05-10T12:17:56;100652.91;;;22.40;32.66
35577;BME280;21680;52.400;16.920;2023-05-10T12:20:23;100649.38;;;22.41;32.37
35577;BME280;21680;52.400;16.920;2023-05-10T12:22:58;100647.95;;;22.50;32.47
35577;BME280;21680;52.400;16.920;2023-05-10T12:25:29;100642.73;;;22.61;32.14
35577;BME280;21680;52.400;16.920;2023-05-10T12:27:55;100639.73;;;22.68;32.00
35577;BME280;21680;52.400;16.920;2023-05-10T12:30:26;100646.43;;;22.68;32.10
35577;BME280;21680;52.400;16.920;2023-05-10T12:32:52;100643.25;;;22.79;31.90
35577;BME280;21680;52.400;16.920;2023-05-10T12:35:18;100638.22;;;22.88;31.74
35577;BME280;21680;52.400;16.920;2023-05-10T12:37:50;100641.61;;;22.90;31.50
35577;BME280;21680;52.400;16.920;2023-05-10T12:40:15;100638.78;;;22.99;31.72
35577;BME280;21680;52.400;16.920;2023-05-10T12:42:45;100646.52;;;23.17;31.47
35577;BME280;21680;52.400;16.920;2023-05-10T12:45:12;100651.48;;;23.37;31.22
35577;BME280;21680;52.400;16.920;2023-05-10T12:47:37;100646.48;;;23.51;31.52
35577;BME280;21680;52.400;16.920;2023-05-10T12:50:04;100642.48;;;23.62;31.16
35577;BME280;21680;52.400;16.920;2023-05-10T12:52:31;100644.27;;;23.70;30.99
35577;BME280;21680;52.400;16.920;2023-05-10T12:54:57;100639.08;;;23.82;30.76
35577;BME280;21680;52.400;16.920;2023-05-10T12:57:23;100640.49;;;23.82;30.63
35577;BME280;21680;52.400;16.920;2023-05-10T12:59:48;100641.98;;;23.91;30.88
35577;BME280;21680;52.400;16.920;2023-05-10T13:02:15;100636.28;;;24.08;30.64
35577;BME280;21680;52.400;16.920;2023-05-10T13:04:41;100636.08;;;24.30;30.56
35577;BME280;21680;52.400;16.920;2023-05-10T13:07:08;100629.13;;;24.39;30.28
35577;BME280;21680;52.400;16.920;2023-05-10T13:09:34;100631.00;;;24.41;30.34
35577;BME280;21680;52.400;16.920;2023-05-10T13:12:00;100633.70;;;24.59;30.25
35577;BME280;21680;52.400;16.920;2023-05-10T13:14:26;100633.34;;;24.68;30.09
35577;BME280;21680;52.400;16.920;2023-05-10T13:16:52;100628.52;;;24.77;29.90
35577;BME280;21680;52.400;16.920;2023-05-10T13:19:17;100627.36;;;24.90;29.74